• Join FlightAware (Why Join?)
  • Login
  • US Flag 
01:59PM EDT


 

Airport Tracker/Info


-or-


 

Live Flight TrackerFlight Track Log ✈ N173DS ✈ 27-Dec-2013 ✈ KOKC - KASE

Flight Track Log - Related Links

Times and Time Zones

All times are in EST time to prevent confusion due to time zone crossing. See the N173DS flight status page for this flight to view local times or setup timezone preferences in your user account.

Time Position Orientation Groundspeed Altitude Reporting Facility
EST Latitude Longitude Course Direction KTS MPH feet Rate Location/Type
04:37PM 35.3786 -97.6058 300° West 140 161 2,100  Level Fort Worth Center
04:38PM 35.3389 -97.6256 202° Southwest 214 246 4,100 2,400 Climbing Fort Worth Center
04:39PM 35.3197 -97.6608 236° Southwest 205 236 5,600 2,340 Climbing Fort Worth Center
04:39PM 35.3228 -97.6875 278° West 224 258 6,500 2,220 Climbing Fort Worth Center
04:40PM 35.3350 -97.7336 288° West 219 252 7,900 1,980 Climbing Fort Worth Center
04:41PM 35.3547 -97.8178 286° West 247 284 9,900 1,920 Climbing Fort Worth Center
04:42PM 35.3778 -97.9172 286° West 296 341 11,900 2,100 Climbing Fort Worth Center
04:43PM 35.7393 -98.3383 300° West  Level Estimated
04:43PM 35.4039 -98.0317 286° West 341 392 14,300  Level Fort Worth Center
04:44PM 35.4319 -98.1553 286° West 372 428 17,600 3,420 Climbing Fort Worth Center
04:45PM 35.4675 -98.3108 286° West 392 451 21,400 3,180 Climbing Fort Worth Center
04:46PM 35.5003 -98.4472 286° West 416 479 24,200 2,460 Climbing Fort Worth Center
04:47PM 35.5817 -98.5372 318° Northwest 432 497 26,600 2,400 Climbing Fort Worth Center
04:48PM 35.6794 -98.6222 325° Northwest 432 497 28,900 1,740 Climbing Kansas City Center
04:49PM 35.7881 -98.7228 323° Northwest 444 511 30,000 660 Climbing Kansas City Center
04:50PM 35.8958 -98.8189 324° Northwest 467 537 30,300 840 Climbing Kansas City Center
04:51PM 36.0003 -98.9136 324° Northwest 468 539 31,800 1,200 Climbing Kansas City Center
04:52PM 36.0992 -99.0058 323° Northwest 452 520 32,900 1,500 Climbing Kansas City Center
04:53PM 36.2006 -99.0961 324° Northwest 448 516 34,900 1,500 Climbing Kansas City Center
04:54PM 36.3036 -99.1931 323° Northwest 443 510 36,000 480 Climbing Kansas City Center
04:55PM 36.4056 -99.2883 323° Northwest 454 522 36,000  Level Kansas City Center
04:56PM 36.5308 -99.4053 323° Northwest 467 537 36,000  Level Kansas City Center
04:57PM 36.6336 -99.5008 323° Northwest 462 532 36,000  Level Kansas City Center
04:58PM 36.7375 -99.5961 324° Northwest 462 532 36,000  Level Kansas City Center
04:59PM 36.8419 -99.6950 323° Northwest 468 539 36,000  Level Kansas City Center
05:00PM 36.9442 -99.7922 323° Northwest 464 534 36,000  Level Kansas City Center
05:01PM 37.0458 -99.8867 323° Northwest 454 522 36,000  Level Kansas City Center
05:02PM 37.1561 -99.9917 323° Northwest 449 517 36,000  Level Kansas City Center
05:03PM 37.2514 -100.0817 323° Northwest 449 517 36,000  Level Kansas City Center
05:04PM 37.3633 -100.1928 322° Northwest 457 526 36,000  Level Kansas City Center
05:05PM 37.4183 -100.3364 296° West 477 549 36,000  Level Kansas City Center
05:06PM 37.4572 -100.5172 285° West 479 551 36,000  Level Kansas City Center
05:08PM 37.4933 -100.6722 286° West 480 552 36,000  Level Kansas City Center
05:09PM 37.5294 -100.8314 286° West 481 554 36,000  Level Kansas City Center
05:10PM 37.5656 -100.9950 286° West 484 557 36,000  Level Kansas City Center
05:11PM 37.6067 -101.1731 286° West 483 556 36,000  Level Kansas City Center
05:12PM 37.6483 -101.3550 286° West 481 554 36,000  Level Kansas City Center
05:13PM 37.6825 -101.5108 286° West 481 554 36,000  Level Kansas City Center
05:14PM 37.7239 -101.6919 286° West 481 554 36,000  Level Kansas City Center
05:15PM 37.7581 -101.8472 286° West 480 552 36,000  Level Kansas City Center
05:16PM 37.7978 -102.0292 285° West 480 552 36,000  Level Kansas City Center
05:17PM 37.8317 -102.1847 285° West 481 554 36,000  Level Kansas City Center
05:18PM 37.8711 -102.3672 285° West 481 554 36,000  Level Kansas City Center
05:19PM 37.9047 -102.5231 285° West 480 552 36,000  Level Kansas City Center
05:20PM 37.9436 -102.7053 285° West 481 554 36,000  Level Kansas City Center
05:21PM 37.9867 -102.9136 285° West 481 554 36,000  Level Denver Center
05:22PM 38.0256 -103.0953 285° West 479 551 36,000  Level Denver Center
05:23PM 38.0575 -103.2503 285° West 478 550 36,000  Level Denver Center
05:24PM 38.0947 -103.4333 285° West 480 552 36,000  Level Denver Center
05:25PM 38.1269 -103.5897 285° West 481 554 36,000  Level Denver Center
05:27PM 38.1639 -103.7719 285° West 480 552 36,000  Level Denver Center
05:28PM 38.1953 -103.9275 284° West 478 550 36,000 -180 Level Denver Center
05:29PM 38.2314 -104.1103 284° West 479 551 35,700 -840 Descending Denver Center
05:30PM 38.2625 -104.2675 284° West 481 554 34,300 -1,500 Descending Denver Center
05:31PM 38.2981 -104.4525 284° West 484 557 32,600 -1,140 Descending Denver Center
05:32PM 38.3072 -104.6208 274° West 498 573 32,000 -300 Descending Denver Center
05:33PM 38.3206 -104.8125 275° West 491 565 32,000 -480 Level Denver Center
05:34PM 38.3433 -104.9714 280° West 474 545 31,100 -1,140 Descending Denver Center
05:35PM 38.4161 -105.1086 304° West 465 535 29,700 -1,440 Descending Denver Center
05:36PM 38.4931 -105.2297 309° West 442 509 28,200 -1,560 Descending Denver Center
05:37PM 38.5761 -105.3636 308° West 414 476 26,500 -1,080 Descending Denver Center
05:38PM 38.6347 -105.4581 308° West 353 406 26,000 -240 Descending Denver Center
05:39PM 38.6936 -105.5514 309° West 309 356 26,000 -300 Level Denver Center
05:40PM 38.7406 -105.6289 308° West 293 337 25,500 -840 Descending Denver Center
05:41PM 38.7961 -105.7161 309° West 285 328 24,300 -1,020 Descending Denver Center
05:42PM 38.8403 -105.7886 308° West 276 318 23,400 -900 Descending Denver Center
05:43PM 38.8894 -105.8708 308° West 262 302 22,500 -720 Descending Denver Center
05:44PM 38.9297 -105.9447 305° West 254 292 22,000 -300 Descending Denver Center
05:45PM 38.9692 -106.0164 305° West 246 283 22,000  Level Denver Center
05:46PM 39.0247 -106.0033 10° North 256 295 22,000  Level Denver Center
05:47PM 38.9911 -105.9236 118° Southeast 265 305 22,000  Level Denver Center
05:48PM 38.9394 -105.8556 134° Southeast 266 306 22,000  Level Denver Center
05:49PM 38.8861 -105.7844 134° Southeast 260 299 22,000  Level Denver Center
05:50PM 38.8303 -105.7078 133° Southeast 262 302 22,000  Level Denver Center
05:51PM 38.7717 -105.7328 198° South 252 290 22,000  Level Denver Center
05:52PM 38.7219 -105.8139 232° Southwest 262 302 22,000  Level Denver Center
05:53PM 38.7606 -105.8706 311° West 233 268 22,000  Level Denver Center
05:54PM 38.8250 -105.9147 332° Northwest 235 270 22,000  Level Denver Center
05:55PM 38.8853 -105.9597 330° Northwest 236 272 22,000  Level Denver Center
05:57PM 38.9428 -106.0011 331° Northwest 237 273 22,000  Level Denver Center
05:58PM 39.0014 -106.0419 332° Northwest 239 275 22,000  Level Denver Center
05:59PM 39.0594 -106.0836 331° Northwest 240 276 22,000  Level Denver Center
06:00PM 39.1183 -106.1242 332° Northwest 241 277 22,000  Level Denver Center
06:01PM 39.1450 -106.0558 63° Northeast 257 296 22,000  Level Denver Center
06:02PM 39.0803 -106.0200 157° South 253 291 22,000  Level Denver Center
06:03PM 39.0119 -105.9906 161° South 259 298 22,000  Level Denver Center
06:04PM 38.9439 -105.9606 161° South 259 298 22,000  Level Denver Center
06:05PM 38.8661 -105.9258 161° South 259 298 22,000  Level Denver Center
06:06PM 38.7983 -105.9058 167° South 266 306 22,000  Level Denver Center
06:07PM 38.7967 -105.9808 268° West 255 293 22,000  Level Denver Center
06:08PM 38.8592 -105.9931 351° North 246 283 22,000  Level Denver Center
06:09PM 38.9258 -106.0067 351° North 238 274 22,000  Level Denver Center
06:10PM 38.9933 -106.0194 352° North 243 280 22,000  Level Denver Center
06:11PM 39.0589 -106.0303 353° North 238 274 22,000  Level Denver Center
06:12PM 39.0906 -105.9633 59° Northeast 255 293 22,000  Level Denver Center
06:13PM 39.0219 -105.9386 164° South 257 296 22,000  Level Denver Center
06:14PM 38.9519 -105.9231 170° South 257 296 22,000  Level Denver Center
06:15PM 38.8803 -105.9081 171° South 259 298 22,000  Level Denver Center
06:16PM 38.8017 -105.8911 170° South 262 302 22,000  Level Denver Center
06:17PM 38.7408 -105.9117 195° South 263 303 22,000  Level Denver Center
06:18PM 38.7850 -105.9686 315° West 240 276 22,000  Level Denver Center
06:19PM 38.8408 -105.9314 27° Northeast 240 276 22,000  Level Denver Center
06:20PM 38.8972 -105.9456 349° North 247 284 22,000 -240 Level Denver Center
06:21PM 38.8836 -106.0347 259° West 255 293 21,500 -480 Descending Denver Center
06:22PM 38.8661 -106.1383 258° West 263 303 21,000 -540 Descending Denver Center
06:23PM 38.8550 -106.2158 260° West 252 290 20,500 -1,020 Descending Denver Center
06:24PM 38.8386 -106.3247 259° West 256 295 18,900 -1,320 Descending Denver Center
06:26PM 38.8236 -106.4172 258° West 262 302 17,800 -960 Descending Denver Center
06:27PM 38.8636 -106.4814 309° West 250 288 17,000 -540 Descending Denver Center
06:28PM 38.9208 -106.5192 333° Northwest 236 272 16,800 -120 Descending Denver Center
06:29PM 38.9792 -106.5614 331° Northwest 233 268 16,800  Level Denver Center
06:30PM 39.0383 -106.6019 332° Northwest 236 272 16,800  Level Denver Center
06:31PM 39.0972 -106.6442 331° Northwest 232 267 16,900  Climbing Denver Center
06:32PM 39.1503 -106.6833 330° Northwest 232 267 16,800 -60 Descending Denver Center
06:33PM 39.2217 -106.7233 337° Northwest 233 268 16,800  Level Denver Center
06:34PM 39.2842 -106.7481 343° North 234 269 16,800  Level Denver Center
06:35PM 39.3458 -106.7728 343° North 234 269 16,800  Level Denver Center
06:36PM 39.4081 -106.7975 343° North 235 270 16,800 120 Level Denver Center
06:37PM 39.4742 -106.8231 343° North 231 266 17,100 -300 Climbing Denver Center
06:38PM 39.5447 -106.8522 342° North 238 274 16,300 -540 Descending Denver Center
06:39PM 39.5806 -106.9028 313° West 222 255 16,100 -120 Descending Denver Center
06:40PM 39.5842 -106.9972 273° West 244 281 16,100  Level Denver Center
06:41PM 39.5261 -107.0050 186° South 246 283 16,100 -420 Level Denver Center
06:42PM 39.4569 -106.9758 162° South 231 266 15,300 -1,260 Descending Denver Center
06:43PM 39.4053 -106.9606 167° South 210 242 13,600 -1,620 Descending Denver Center
06:44PM 39.3556 -106.9344 158° South 201 231 12,000 -1,320 Descending Denver Center
06:45PM 39.3156 -106.9136 158° South 173 199 10,900 -1,440 Descending Denver Center
06:46PM 39.2686 -106.8906 159° South 159 183 9,000 -1,080 Descending Denver Center
06:47PM 39.2303 -106.8731 161° South 157 181 8,700 -300 Descending Denver Center